Aeroporto :
LOGIN :

Iscrizione | Disclaimer

   EN    FR    IT 

 










Sommario :    VFR   VFR Marginale   IFR   IFR Intensivo   IFR Molto Intensivo
Visibilità : 
Base nubi : 
>= 8 km
>= 3000ft
5 / 8 km
1000 / 3000 ft
1500m / 5 km
500 / 1000 ft
800 / 1500m
200 / 500 ft
< 800m
< 200 ft
Simboli :   Temporali  Nebbia  Neve Forte  Precipitazioni Forti  Vento > 20 kt
SIGMETs :   Varie  Temporali  Ghiacco  Turbolenza  Onda orograficha  Ceneri Vulcaniche






- Altitudine del aeroporto : 1276 ft
- Codice IATA : STR


EDDS - Stuttgart

ULTIMO METAR :
  • 250420Z 22004KT 140V300 5000 -SHRA FEW006 SCT022 BKN037CB 15/14 Q1019 RESHRA TEMPO 4500 SHRA

METARs OBSOLETI :
  • 250350Z 23003KT 150V310 8000 -SHRA FEW006 SCT017 BKN038CB 15/14 Q1019 RESHRA
  • 250320Z 24004KT 160V290 4800 SHRA FEW013 SCT020 BKN031CB 15/14 Q1019
  • 250250Z 23003KT 170V300 9999 VCSH SCT020 BKN034CB 15/14 Q1019
  • 250220Z 22004KT 160V300 9999 VCSH FEW010 SCT022 SCT033CB 15/14 Q1019
  • 250150Z VRB03KT 9999 -SHRA FEW010 SCT024 BKN038CB 15/14 Q1019

TAF TAF EDDS
Valido dal 25 a 00 ore il 26 a 00 ore UTC


242300Z 2500/2524 24005KT 9999 FEW012 BKN030
PROB30
TEMPO 2500/2507 4500 -SHRA BKN012CB
BECMG 2507/2510 33005KT
PROB30
TEMPO 2510/2514 SHRA BKN030CB
BECMG 2517/2519 VRB03KT



MetMap, La meteo Aeronautica in un colpo d'occhio ! - Copyright ORBIFLY Dicembre 2007 - Disclaimer

ORBIFLY MET'MAP TEAM :

Programmazione e sviluppo : Alexandra Zaïnal
Concezione : Baudouin d'Aumeries
Aiuto per la programmazione : Marc-Olivier Méhu
Supporto tecnico e logistico : Manuel Goepfert
Aiuto per la traduzione : Arnaldo La Scala

Contatto : metmap@orbifly.com




FONTI E CREDITI :

   NOAA